createdAt,value
2018-04-17T00:01:51.227Z,11.40
2018-04-17T00:04:18.817Z,11.40
2018-04-17T00:06:46.413Z,11.30
2018-04-17T00:09:14.006Z,11.30
2018-04-17T00:11:42.422Z,11.30
2018-04-17T00:14:10.082Z,11.30
2018-04-17T00:16:37.677Z,11.30
2018-04-17T00:19:05.275Z,11.30
2018-04-17T00:21:32.889Z,11.30
2018-04-17T00:24:01.251Z,11.30
2018-04-17T00:26:28.834Z,11.20
2018-04-17T00:28:56.451Z,11.30
2018-04-17T00:31:24.039Z,11.30
2018-04-17T00:33:51.619Z,11.20
2018-04-17T00:36:19.226Z,11.20
2018-04-17T00:38:46.812Z,11.20
2018-04-17T00:41:14.402Z,11.10
2018-04-17T00:43:42.783Z,11.00
2018-04-17T00:46:11.145Z,11.00
2018-04-17T00:48:38.736Z,11.00
2018-04-17T00:51:06.350Z,11.00
2018-04-17T00:53:45.646Z,11.00
2018-04-17T00:56:13.275Z,11.00
2018-04-17T00:58:40.871Z,10.90
2018-04-17T01:01:08.454Z,10.90
2018-04-17T01:03:36.069Z,10.90
2018-04-17T01:06:04.428Z,10.90
2018-04-17T01:08:32.008Z,10.80
2018-04-17T01:10:59.625Z,10.80
2018-04-17T01:13:27.217Z,10.80
2018-04-17T01:15:54.807Z,10.70
2018-04-17T01:18:22.422Z,10.70
2018-04-17T01:20:50.782Z,10.50
2018-04-17T01:23:18.379Z,10.40
2018-04-17T01:25:46.759Z,10.30
2018-04-17T01:28:14.342Z,10.30
2018-04-17T01:30:41.943Z,10.30
2018-04-17T01:33:09.558Z,10.30
2018-04-17T01:35:37.175Z,10.20
2018-04-17T01:38:04.783Z,10.10
2018-04-17T01:40:32.399Z,10.10
2018-04-17T01:42:59.992Z,10.00
2018-04-17T01:45:28.337Z,10.00
2018-04-17T01:47:55.960Z,9.90
2018-04-17T01:50:24.308Z,9.90
2018-04-17T01:52:51.886Z,9.80
2018-04-17T01:55:19.481Z,9.80
2018-04-17T01:57:47.078Z,9.80
2018-04-17T02:00:14.698Z,9.80
2018-04-17T02:02:42.287Z,9.70
2018-04-17T02:05:09.881Z,9.70
2018-04-17T02:07:38.238Z,9.60
2018-04-17T02:10:05.817Z,9.60
2018-04-17T02:12:33.426Z,9.60
2018-04-17T02:15:01.787Z,9.40
2018-04-17T02:17:29.387Z,9.40
2018-04-17T02:19:57.753Z,9.40
2018-04-17T02:22:25.349Z,9.40
2018-04-17T02:24:53.731Z,9.30
2018-04-17T02:27:21.306Z,9.30
2018-04-17T02:29:48.882Z,9.30
2018-04-17T02:32:16.567Z,9.20
2018-04-17T02:34:44.117Z,9.20
2018-04-17T02:37:11.727Z,9.20
2018-04-17T02:39:39.323Z,9.10
2018-04-17T02:42:06.927Z,9.10
2018-04-17T02:44:34.535Z,9.10
2018-04-17T02:47:02.902Z,9.10
2018-04-17T02:49:30.507Z,9.00
2018-04-17T02:51:58.095Z,9.00
2018-04-17T02:54:25.672Z,9.10
2018-04-17T02:56:53.264Z,9.00
2018-04-17T02:59:20.866Z,9.00
2018-04-17T03:01:48.470Z,9.00
2018-04-17T03:04:16.906Z,9.00
2018-04-17T03:06:44.486Z,9.00
2018-04-17T03:09:12.085Z,9.10
2018-04-17T03:11:39.679Z,9.00
2018-04-17T03:14:08.047Z,9.00
2018-04-17T03:16:35.642Z,8.90
2018-04-17T03:19:03.990Z,8.90
2018-04-17T03:21:31.578Z,8.80
2018-04-17T03:23:59.254Z,8.80
2018-04-17T03:26:26.879Z,8.80
2018-04-17T03:28:54.463Z,8.80
2018-04-17T03:31:22.038Z,8.80
2018-04-17T03:33:49.643Z,8.80
2018-04-17T03:36:17.230Z,8.80
2018-04-17T03:38:44.863Z,8.80
2018-04-17T03:41:12.453Z,8.80
2018-04-17T03:43:40.268Z,8.90
2018-04-17T03:46:08.644Z,8.90
2018-04-17T03:48:36.451Z,8.80
2018-04-17T03:51:04.061Z,8.90
2018-04-17T03:53:31.638Z,9.00
2018-04-17T03:55:59.222Z,9.00
2018-04-17T03:58:26.826Z,9.00
2018-04-17T04:00:55.186Z,9.10
2018-04-17T04:03:22.846Z,9.10
2018-04-17T04:05:50.431Z,9.10
2018-04-17T04:08:18.018Z,9.10
2018-04-17T04:10:45.615Z,9.20
2018-04-17T04:13:13.975Z,9.30
2018-04-17T04:15:41.692Z,9.20
2018-04-17T04:18:21.112Z,9.30
2018-04-17T04:21:00.599Z,9.30
2018-04-17T04:23:40.237Z,9.40
2018-04-17T04:26:20.469Z,9.50
2018-04-17T04:28:48.047Z,9.40
2018-04-17T04:31:15.638Z,9.60
2018-04-17T04:33:43.255Z,9.60
2018-04-17T04:36:10.832Z,9.70
2018-04-17T04:38:38.435Z,9.80
2018-04-17T04:41:06.026Z,9.80
2018-04-17T04:43:33.615Z,9.90
2018-04-17T04:46:01.230Z,9.90
2018-04-17T04:48:28.820Z,10.00
2018-04-17T04:50:56.430Z,10.10
2018-04-17T04:53:24.075Z,10.20
2018-04-17T04:55:51.651Z,10.20
2018-04-17T04:58:19.261Z,10.30
2018-04-17T05:00:46.858Z,10.40
2018-04-17T05:03:14.456Z,10.50
2018-04-17T05:05:42.051Z,10.50
2018-04-17T05:08:09.627Z,10.60
2018-04-17T05:10:37.252Z,10.70
2018-04-17T05:13:04.884Z,10.80
2018-04-17T05:15:32.510Z,10.80
2018-04-17T05:18:00.118Z,10.80
2018-04-17T05:20:27.774Z,10.90
2018-04-17T05:22:55.398Z,10.90
2018-04-17T05:25:23.753Z,10.90
2018-04-17T05:27:51.363Z,10.80
2018-04-17T05:30:19.737Z,10.90
2018-04-17T05:32:47.337Z,10.80
2018-04-17T05:35:15.701Z,11.00
2018-04-17T05:37:43.291Z,11.00
2018-04-17T05:40:11.738Z,11.10
2018-04-17T05:42:39.307Z,11.10
2018-04-17T05:45:06.896Z,11.10
2018-04-17T05:47:34.505Z,11.20
2018-04-17T05:50:02.871Z,11.30
2018-04-17T05:52:30.491Z,11.30
2018-04-17T05:54:58.319Z,11.30
2018-04-17T05:57:25.915Z,11.30
2018-04-17T05:59:53.526Z,11.30
2018-04-17T06:02:21.126Z,11.40
2018-04-17T06:04:48.746Z,11.30
2018-04-17T06:07:17.110Z,11.10
2018-04-17T06:09:45.558Z,11.10
2018-04-17T06:12:13.160Z,11.10
2018-04-17T06:14:40.767Z,11.00
2018-04-17T06:17:09.171Z,11.00
2018-04-17T06:19:37.524Z,11.00
2018-04-17T06:22:05.107Z,11.00
2018-04-17T06:24:32.767Z,11.10
2018-04-17T06:27:00.375Z,11.10
2018-04-17T06:29:28.749Z,11.30
2018-04-17T06:31:56.329Z,11.20
2018-04-17T06:34:24.122Z,11.30
2018-04-17T06:36:52.487Z,11.30
2018-04-17T06:39:20.078Z,11.30
2018-04-17T06:41:47.837Z,11.40
2018-04-17T06:44:15.629Z,11.40
2018-04-17T06:46:43.995Z,11.50
2018-04-17T06:49:11.634Z,11.50
2018-04-17T06:51:39.305Z,11.60
2018-04-17T06:54:07.030Z,11.60
2018-04-17T06:56:34.705Z,11.50
2018-04-17T06:59:03.083Z,11.60
2018-04-17T07:01:30.706Z,11.50
2018-04-17T07:03:59.062Z,11.60
2018-04-17T07:06:26.683Z,11.60
2018-04-17T07:08:54.274Z,11.40
2018-04-17T07:11:21.861Z,11.40
2018-04-17T07:13:49.475Z,11.30
2018-04-17T07:16:17.063Z,11.40
2018-04-17T07:18:45.438Z,11.50
2018-04-17T07:21:13.021Z,11.40
2018-04-17T07:23:40.621Z,11.50
2018-04-17T07:26:08.260Z,11.60
2018-04-17T07:28:35.838Z,11.70
2018-04-17T07:31:04.210Z,11.90
2018-04-17T07:33:31.802Z,11.80
2018-04-17T07:36:00.155Z,11.90
2018-04-17T07:38:27.755Z,11.80
2018-04-17T07:40:55.359Z,12.00
2018-04-17T07:43:23.026Z,11.90
2018-04-17T07:45:50.629Z,12.00
2018-04-17T07:48:30.085Z,12.10
2018-04-17T07:50:57.677Z,12.10
2018-04-17T07:53:25.270Z,12.10
2018-04-17T07:55:52.869Z,12.10
2018-04-17T07:58:21.219Z,12.30
2018-04-17T08:00:48.834Z,12.20
2018-04-17T08:03:17.189Z,12.10
2018-04-17T08:05:44.779Z,12.00
2018-04-17T08:08:12.393Z,12.10
2018-04-17T08:10:39.999Z,12.20
2018-04-17T08:13:07.611Z,12.20
2018-04-17T08:15:35.968Z,12.20
2018-04-17T08:18:03.562Z,12.20
2018-04-17T08:20:31.175Z,12.30
2018-04-17T08:22:58.768Z,12.30
2018-04-17T08:25:26.386Z,12.30
2018-04-17T08:27:53.978Z,12.30
2018-04-17T08:30:21.583Z,12.20
2018-04-17T08:32:49.190Z,12.10
2018-04-17T08:35:16.770Z,12.10
2018-04-17T08:37:44.391Z,12.10
2018-04-17T08:40:11.987Z,12.00
2018-04-17T08:42:39.581Z,12.00
2018-04-17T08:45:07.195Z,12.00
2018-04-17T08:47:34.778Z,12.20
2018-04-17T08:50:02.430Z,12.30
2018-04-17T08:52:30.795Z,12.30
2018-04-17T08:54:58.452Z,12.20
2018-04-17T08:57:26.054Z,12.30
2018-04-17T08:59:53.643Z,12.20
2018-04-17T09:02:22.027Z,12.30
2018-04-17T09:04:49.601Z,12.20
2018-04-17T09:07:17.189Z,12.20
2018-04-17T09:09:45.569Z,12.30
2018-04-17T09:12:13.917Z,12.40
2018-04-17T09:14:41.539Z,12.30
2018-04-17T09:17:09.928Z,12.10
2018-04-17T09:19:37.497Z,12.00
2018-04-17T09:22:05.858Z,12.30
2018-04-17T09:24:33.445Z,12.20
2018-04-17T09:27:01.027Z,12.10
2018-04-17T09:29:29.405Z,12.10
2018-04-17T09:31:56.998Z,12.00
2018-04-17T09:34:25.417Z,12.40
2018-04-17T09:36:52.989Z,12.30
2018-04-17T09:39:20.573Z,12.40
2018-04-17T09:41:48.179Z,12.50
2018-04-17T09:44:15.765Z,12.60
2018-04-17T09:46:43.378Z,12.60
2018-04-17T09:49:10.969Z,12.60
2018-04-17T09:51:38.560Z,12.60
2018-04-17T09:54:06.153Z,12.70
2018-04-17T09:56:33.734Z,13.00
2018-04-17T09:59:01.339Z,13.20
2018-04-17T10:01:28.917Z,13.60
2018-04-17T10:03:56.521Z,14.00
2018-04-17T10:06:24.121Z,14.40
2018-04-17T10:08:51.716Z,14.90
2018-04-17T10:11:19.310Z,15.20
2018-04-17T10:13:46.893Z,15.20
2018-04-17T10:16:14.477Z,14.80
2018-04-17T10:18:42.072Z,14.80
2018-04-17T10:21:09.630Z,15.20
2018-04-17T10:23:37.219Z,15.90
2018-04-17T10:26:04.778Z,16.30
2018-04-17T10:28:32.372Z,15.50
2018-04-17T10:30:59.982Z,15.10
2018-04-17T10:33:27.552Z,15.30
2018-04-17T10:35:55.134Z,15.30
2018-04-17T10:38:22.722Z,15.50
2018-04-17T10:40:51.057Z,15.80
2018-04-17T10:43:18.637Z,15.80
2018-04-17T10:45:47.327Z,15.70
2018-04-17T10:48:14.921Z,16.10
2018-04-17T10:50:42.487Z,16.20
2018-04-17T10:53:10.499Z,16.20
2018-04-17T10:55:38.862Z,15.90
2018-04-17T10:58:06.434Z,15.90
2018-04-17T11:00:34.024Z,15.70
2018-04-17T11:03:02.386Z,15.50
2018-04-17T11:05:29.955Z,15.40
2018-04-17T11:07:57.573Z,15.40
2018-04-17T11:10:25.189Z,15.50
2018-04-17T11:12:52.814Z,15.50
2018-04-17T11:15:20.405Z,15.30
2018-04-17T11:17:47.987Z,15.40
2018-04-17T11:20:15.592Z,15.70
2018-04-17T11:22:43.203Z,15.40
2018-04-17T11:25:11.603Z,15.00
2018-04-17T11:27:39.184Z,14.90
2018-04-17T11:30:06.766Z,15.00
2018-04-17T11:32:34.371Z,15.20
2018-04-17T11:35:01.987Z,15.10
2018-04-17T11:37:30.388Z,15.00
2018-04-17T11:39:57.991Z,14.90
2018-04-17T11:42:25.574Z,15.00
2018-04-17T11:44:53.173Z,15.10
2018-04-17T11:47:20.767Z,15.10
2018-04-17T11:49:49.147Z,15.30
2018-04-17T11:52:16.739Z,15.20
2018-04-17T11:54:44.354Z,15.30
2018-04-17T11:57:11.978Z,15.40
2018-04-17T11:59:40.354Z,15.00
2018-04-17T12:02:07.965Z,14.90
2018-04-17T12:04:35.571Z,15.30
2018-04-17T12:07:03.129Z,15.60
2018-04-17T12:09:30.712Z,15.90
2018-04-17T12:11:58.270Z,16.10
2018-04-17T12:14:26.626Z,15.80
2018-04-17T12:16:54.218Z,15.80
2018-04-17T12:19:21.783Z,15.80
2018-04-17T12:21:49.387Z,15.90
2018-04-17T12:24:16.955Z,16.00
2018-04-17T12:26:45.310Z,15.80
2018-04-17T12:29:12.871Z,15.70
2018-04-17T12:31:40.445Z,15.90
2018-04-17T12:34:08.027Z,16.20
2018-04-17T12:36:35.593Z,16.80
2018-04-17T12:39:03.193Z,16.80
2018-04-17T12:41:31.511Z,16.90
2018-04-17T12:43:59.069Z,16.80
2018-04-17T12:46:27.412Z,17.40
2018-04-17T12:48:54.976Z,17.40
2018-04-17T12:51:22.567Z,17.50
2018-04-17T12:53:50.125Z,17.70
2018-04-17T12:56:17.673Z,18.00
2018-04-17T12:58:45.258Z,18.10
2018-04-17T13:01:12.826Z,17.80
2018-04-17T13:03:40.410Z,17.80
2018-04-17T13:06:07.983Z,17.50
2018-04-17T13:08:35.534Z,17.70
2018-04-17T13:11:03.122Z,17.70
2018-04-17T13:13:30.715Z,17.80
2018-04-17T13:15:58.322Z,18.30
2018-04-17T13:18:26.668Z,17.60
2018-04-17T13:20:54.238Z,17.60
2018-04-17T13:23:21.831Z,18.10
2018-04-17T13:25:49.405Z,18.10
2018-04-17T13:28:17.000Z,18.20
2018-04-17T13:30:45.331Z,18.80
2018-04-17T13:33:12.939Z,18.70
2018-04-17T13:35:40.527Z,20.10
2018-04-17T13:38:08.090Z,20.70
2018-04-17T13:40:35.689Z,20.80
2018-04-17T13:43:04.031Z,20.90
2018-04-17T13:45:31.599Z,20.80
2018-04-17T13:47:59.181Z,19.70
2018-04-17T13:50:26.763Z,20.00
2018-04-17T13:52:54.342Z,20.90
2018-04-17T13:55:21.936Z,21.40
2018-04-17T13:57:49.503Z,21.10
2018-04-17T14:00:17.088Z,21.40
2018-04-17T14:02:45.461Z,22.40
2018-04-17T14:05:13.030Z,22.30
2018-04-17T14:07:40.602Z,22.60
2018-04-17T14:10:08.180Z,22.70
2018-04-17T14:12:35.767Z,22.70
2018-04-17T14:15:04.099Z,20.70
2018-04-17T14:17:31.697Z,20.60
2018-04-17T14:19:59.291Z,20.00
2018-04-17T14:22:26.870Z,19.60
2018-04-17T14:24:55.222Z,19.30
2018-04-17T14:27:22.779Z,19.30
2018-04-17T14:29:50.378Z,18.80
2018-04-17T14:32:17.951Z,18.20
2018-04-17T14:34:45.514Z,18.00
2018-04-17T14:37:13.115Z,18.00
2018-04-17T14:39:40.731Z,17.70
2018-04-17T14:42:08.326Z,17.90
2018-04-17T14:44:35.890Z,17.80
2018-04-17T14:47:03.499Z,17.70
2018-04-17T14:49:31.144Z,17.20
2018-04-17T14:51:58.708Z,17.30
2018-04-17T14:54:26.315Z,17.10
2018-04-17T14:56:53.895Z,17.00
2018-04-17T14:59:22.255Z,17.10
2018-04-17T15:01:49.825Z,17.00
2018-04-17T15:04:17.390Z,17.00
2018-04-17T15:06:45.018Z,16.70
2018-04-17T15:09:12.609Z,16.70
2018-04-17T15:11:40.208Z,16.70
2018-04-17T15:14:08.221Z,16.60
2018-04-17T15:16:35.819Z,16.60
2018-04-17T15:19:04.042Z,16.60
2018-04-17T15:21:31.679Z,16.40
2018-04-17T15:23:59.462Z,16.40
2018-04-17T15:26:27.099Z,16.50
2018-04-17T15:28:54.710Z,16.50
2018-04-17T15:31:22.331Z,16.50
2018-04-17T15:33:49.980Z,16.50
2018-04-17T15:36:17.589Z,16.50
2018-04-17T15:38:45.215Z,16.40
2018-04-17T15:41:12.779Z,16.50
2018-04-17T15:43:40.406Z,16.60
2018-04-17T15:46:08.007Z,16.50
2018-04-17T15:48:36.380Z,16.40
2018-04-17T15:51:03.990Z,16.40
2018-04-17T15:53:32.338Z,16.20
2018-04-17T15:55:59.963Z,16.10
2018-04-17T15:58:27.561Z,16.20
2018-04-17T16:00:55.146Z,16.20
2018-04-17T16:03:22.784Z,16.20
2018-04-17T16:05:51.392Z,16.20
2018-04-17T16:08:19.012Z,16.10
2018-04-17T16:10:46.605Z,16.20
2018-04-17T16:13:15.418Z,16.20
2018-04-17T16:15:43.049Z,16.10
2018-04-17T16:18:10.688Z,16.10
2018-04-17T16:20:38.289Z,16.10
2018-04-17T16:23:05.922Z,16.00
2018-04-17T16:25:33.510Z,16.00
2018-04-17T16:28:01.129Z,15.90
2018-04-17T16:30:28.719Z,15.90
2018-04-17T16:32:57.123Z,15.80
2018-04-17T16:35:25.487Z,15.80
2018-04-17T16:37:53.078Z,15.80
2018-04-17T16:40:21.473Z,15.80
2018-04-17T16:42:49.823Z,15.80
2018-04-17T16:45:17.440Z,15.70
2018-04-17T16:47:45.799Z,15.70
2018-04-17T16:50:13.391Z,15.60
2018-04-17T16:52:40.997Z,15.70
2018-04-17T16:55:08.573Z,15.60
2018-04-17T16:57:36.180Z,15.60
2018-04-17T17:00:03.814Z,15.60
2018-04-17T17:02:31.411Z,15.50
2018-04-17T17:04:59.027Z,15.50
2018-04-17T17:07:26.618Z,15.50
2018-04-17T17:09:55.005Z,15.40
2018-04-17T17:12:23.370Z,15.40
2018-04-17T17:14:50.980Z,15.30
2018-04-17T17:17:19.363Z,15.20
2018-04-17T17:19:47.725Z,15.10
2018-04-17T17:22:15.348Z,15.00
2018-04-17T17:24:42.933Z,15.10
2018-04-17T17:27:10.605Z,15.00
2018-04-17T17:29:40.019Z,15.00
2018-04-17T17:32:07.707Z,14.90
2018-04-17T17:34:35.318Z,14.90
2018-04-17T17:37:02.934Z,14.80
2018-04-17T17:39:30.534Z,14.70
2018-04-17T17:41:58.138Z,14.70
2018-04-17T17:44:25.736Z,14.70
2018-04-17T17:46:54.110Z,14.50
2018-04-17T17:49:21.721Z,14.40
2018-04-17T17:51:49.321Z,14.40
2018-04-17T17:54:16.957Z,14.30
2018-04-17T17:56:45.316Z,14.00
2018-04-17T17:59:12.945Z,13.90
2018-04-17T18:01:40.581Z,13.80
2018-04-17T18:04:08.938Z,13.60
2018-04-17T18:06:36.857Z,13.60
2018-04-17T18:09:06.014Z,13.40
2018-04-17T18:11:33.663Z,13.30
2018-04-17T18:14:01.347Z,13.30
2018-04-17T18:16:28.962Z,13.10
2018-04-17T18:18:56.630Z,13.00
2018-04-17T18:21:24.264Z,12.90
2018-04-17T18:23:51.850Z,12.70
2018-04-17T18:26:19.474Z,12.70
2018-04-17T18:28:47.142Z,12.60
2018-04-17T18:31:14.766Z,12.50
2018-04-17T18:33:42.376Z,12.40
2018-04-17T18:36:09.954Z,12.40
2018-04-17T18:38:37.611Z,12.30
2018-04-17T18:41:05.205Z,12.10
2018-04-17T18:43:32.862Z,12.00
2018-04-17T18:46:00.445Z,12.00
2018-04-17T18:48:28.061Z,11.90
2018-04-17T18:50:55.674Z,11.90
2018-04-17T18:53:23.871Z,11.80
2018-04-17T18:55:51.486Z,11.80
2018-04-17T18:58:19.843Z,11.60
2018-04-17T19:00:47.432Z,11.50
2018-04-17T19:03:15.042Z,11.50
2018-04-17T19:05:42.655Z,11.50
2018-04-17T19:08:10.273Z,11.40
2018-04-17T19:10:37.891Z,11.30
2018-04-17T19:13:05.484Z,11.30
2018-04-17T19:15:33.094Z,11.20
2018-04-17T19:18:01.456Z,11.10
2018-04-17T19:20:29.215Z,11.00
2018-04-17T19:22:58.277Z,11.00
2018-04-17T19:25:26.639Z,11.00
2018-04-17T19:27:54.254Z,10.90
2018-04-17T19:30:22.820Z,10.90
2018-04-17T19:32:50.452Z,10.80
2018-04-17T19:35:18.063Z,10.70
2018-04-17T19:37:46.727Z,10.70
2018-04-17T19:40:14.349Z,10.70
2018-04-17T19:42:42.733Z,10.50
2018-04-17T19:45:10.430Z,10.50
2018-04-17T19:47:38.024Z,10.50
2018-04-17T19:50:05.603Z,10.50
2018-04-17T19:52:33.211Z,10.30
2018-04-17T19:55:00.803Z,10.30
2018-04-17T19:57:29.199Z,10.20
2018-04-17T19:59:57.558Z,10.20
2018-04-17T20:02:25.151Z,10.10
2018-04-17T20:04:52.759Z,10.10
2018-04-17T20:07:20.350Z,10.10
2018-04-17T20:09:47.962Z,10.00
2018-04-17T20:12:15.551Z,10.00
2018-04-17T20:14:43.906Z,9.90
2018-04-17T20:17:11.538Z,9.80
2018-04-17T20:19:39.127Z,9.90
2018-04-17T20:22:06.799Z,9.80
2018-04-17T20:24:34.382Z,9.80
2018-04-17T20:27:01.974Z,9.70
2018-04-17T20:29:29.571Z,9.70
2018-04-17T20:31:57.202Z,9.70
2018-04-17T20:34:24.814Z,9.60
2018-04-17T20:36:52.402Z,9.60
2018-04-17T20:39:19.991Z,9.50
2018-04-17T20:41:49.136Z,9.50
2018-04-17T20:44:16.735Z,9.50
2018-04-17T20:46:44.349Z,9.50
2018-04-17T20:49:13.043Z,9.40
2018-04-17T20:51:41.390Z,9.30
2018-04-17T20:54:08.998Z,9.30
2018-04-17T20:56:36.585Z,9.30
2018-04-17T20:59:04.959Z,9.20
2018-04-17T21:01:32.542Z,9.10
2018-04-17T21:04:00.885Z,9.20
2018-04-17T21:06:28.486Z,9.10
2018-04-17T21:08:56.082Z,9.10
2018-04-17T21:11:24.458Z,9.10
2018-04-17T21:13:52.046Z,9.00
2018-04-17T21:16:20.406Z,9.00
2018-04-17T21:18:49.276Z,8.90
2018-04-17T21:21:16.866Z,9.00
2018-04-17T21:23:44.466Z,8.90
2018-04-17T21:26:12.064Z,8.90
2018-04-17T21:28:40.427Z,8.80
2018-04-17T21:31:08.030Z,8.80
2018-04-17T21:33:36.379Z,8.70
2018-04-17T21:36:03.987Z,8.60
2018-04-17T21:38:32.346Z,8.70
2018-04-17T21:40:59.931Z,8.60
2018-04-17T21:43:27.550Z,8.60
2018-04-17T21:45:55.939Z,8.60
2018-04-17T21:48:23.527Z,8.60
2018-04-17T21:50:51.125Z,8.60
2018-04-17T21:53:18.698Z,8.60
2018-04-17T21:55:46.323Z,8.60
2018-04-17T21:58:14.695Z,8.50
2018-04-17T22:00:43.061Z,8.40
2018-04-17T22:03:10.670Z,8.40
2018-04-17T22:05:39.024Z,8.40
2018-04-17T22:08:06.629Z,8.30
2018-04-17T22:10:34.974Z,8.20
2018-04-17T22:13:02.554Z,8.20
2018-04-17T22:15:30.149Z,8.20
2018-04-17T22:17:57.743Z,8.20
2018-04-17T22:20:26.123Z,8.10
2018-04-17T22:22:54.475Z,8.10
2018-04-17T22:25:22.067Z,8.00
2018-04-17T22:27:49.662Z,8.10
2018-04-17T22:30:17.243Z,8.00
2018-04-17T22:32:45.609Z,8.00
2018-04-17T22:35:13.196Z,7.90
2018-04-17T22:37:40.834Z,7.90
2018-04-17T22:40:08.434Z,7.90
2018-04-17T22:42:36.014Z,7.90
2018-04-17T22:45:03.623Z,7.80
2018-04-17T22:47:31.330Z,7.90
2018-04-17T22:49:58.923Z,7.90
2018-04-17T22:52:27.335Z,7.80
2018-04-17T22:54:55.692Z,7.90
2018-04-17T22:57:23.743Z,7.80
2018-04-17T22:59:51.332Z,7.90
2018-04-17T23:02:18.910Z,7.80
2018-04-17T23:04:46.511Z,7.70
2018-04-17T23:07:14.091Z,7.70
2018-04-17T23:09:41.704Z,7.70
2018-04-17T23:12:09.277Z,7.60
2018-04-17T23:14:36.854Z,7.60
2018-04-17T23:17:04.450Z,7.60
2018-04-17T23:19:32.030Z,7.50
2018-04-17T23:21:59.639Z,7.50
2018-04-17T23:24:27.236Z,7.50
2018-04-17T23:26:54.811Z,7.50
2018-04-17T23:29:22.412Z,7.40
2018-04-17T23:31:49.985Z,7.40
2018-04-17T23:34:17.586Z,7.40
2018-04-17T23:36:45.162Z,7.30
2018-04-17T23:39:12.749Z,7.30
2018-04-17T23:41:40.347Z,7.30
2018-04-17T23:44:07.913Z,7.20
2018-04-17T23:46:35.517Z,7.20
2018-04-17T23:49:03.094Z,7.20
2018-04-17T23:51:30.666Z,7.20
2018-04-17T23:53:58.261Z,7.10
2018-04-17T23:56:25.844Z,7.10
2018-04-17T23:58:53.451Z,7.10
